Aérodrome :
LOGIN :

S'inscrire | Disclaimer

   EN    FR    IT 

 










Légende :    VFR   VFR Marginal   IFR   IFR Intensif   IFR Très Intensif
Visi : 
Plafond : 
>= 8 km
>= 3000ft
5 à 8 km
1000 à 3000 ft
1500m à 5 km
500 à 1000 ft
800 à 1500m
200 à 500 ft
< 800m
< 200 ft
Symboles :   Orages  Brouillard  Fortes neiges  Fortes précipitations  Vent > 20 kt
SIGMETs :   Divers  Orages  Givrage  Turbulence  Onde Orograph.  Cendres Volcan.






- Altitude de l'aérodrome : 70 ft
- Code IATA : LEI


LEAM - Almeria

DERNIER METAR :
  • 222230Z AUTO 25010KT 200V280 9999 BKN008 BKN014 17/15 Q0998

METARs EXPIRÉS :
  • 222200Z AUTO 24022G33KT 210V270 9999 -RA BKN009 17/16 Q0998
  • 222130Z 25023G34KT 220V280 9999 SCT007 BKN010 17/16 Q0998 RERA
  • 222115Z 23028G38KT 8000 SCT007 BKN015 16/16 Q0998 RERA
  • 222042Z 24024G34KT 3000 RA SCT007 BKN010 17/16 Q0998
  • 222030Z 24022G33KT 8000 -RA BKN010 17/16 Q0998
  • 222000Z 23009KT 150V260 9999 -RA FEW005 BKN010 16/15 Q0999

TAF TAF LEAM
Valide du 22 à 21h jusqu'au 23 à 21h UTC


222000Z 2221/2321 24010KT 9999 FEW006 SCT010 TX19/2314Z TN13/2306Z
PROB30
TEMPO 2221/2301 24018G30KT 3000 SHRA BKN010 FEW030CB
BECMG 2300/2302 35006KT



MET'MAP, la Météo Aéronautique d'un coup d'oeil ! - Copyright ORBIFLY Décembre 2007 - Disclaimer

ORBIFLY MET'MAP TEAM :

Programmation & Développement : Alexandra Zaïnal
Conception & Développement : Baudouin d'Aumeries
Co-Programmation & Développement : Marc-Olivier Méhu
Soutien technique & logistique : Manuel Goepfert

Contact : metmap@orbifly.com




SOURCES & CREDITS :

   NOAA